Air Resources Laboratory banner image
Air Resources Laboratory web site National Oceanic and Atmospheric Administration (NOAA)

in metar


KAID 211847Z 36010KT 10SM OVC009 03/02 A3044=
KBAK 211845Z 36008KT 10SM -RA OVC010 05/03 A3045=
KBMG 211853Z 36011KT 8SM -RA OVC009 05/04 A3043 RMK AO2 CIG 006V012 SLP305
 P0003 T00500039=
KEKM 211852Z 34012KT 10SM OVC013 00/M02 A3052 RMK AO2=
KEVV 211854Z 34009KT 10SM -RA OVC009 05/04 A3043 RMK AO2 SLP306 P0002 T00500044=
KEYE 211853Z AUTO 36009KT 10SM OVC013 03/01 A3047 RMK AO2 RAE1759 SLP320 P0000
 T00330006=
KFWA 211854Z 35009KT 10SM BKN015 OVC110 03/01 A3048 RMK AO2 SLP324 T00330006=
KGEZ 211853Z AUTO 36010KT 10SM -RA OVC011 05/02 A3044 RMK AO2 SLP308 P0002
 T00500022 $=
KGSH 211853Z AUTO 33007KT 10SM OVC012 01/M02 A3051 RMK AO2 SLP340 T00061017=
KGUS 211856Z 36011KT 10SM OVC014 02/02 A3048 RMK AO2A SLP332 T00170016 $=
KGYY 211845Z 36010G20KT 10SM OVC020 00/M05 A3058=
KHLB 211855Z AUTO 10SM BKN008 BKN019 06/06 A3042 RMK A01=
KHNB 211856Z AUTO 36008KT 10SM -RA OVC007 06/05 A3042 RMK AO2 CIG 005V010
 SLP301 P0004 T00610050=
KHUF 211853Z 01008KT 10SM OVC013 03/01 A3047 RMK AO2 SLP320 T00330011=
KIND 211854Z 01010KT 10SM -RA FEW009 OVC012 03/01 A3047 RMK AO2 SLP320 P0000
 T00330011=
KLAF 211854Z 01010KT 10SM OVC016 01/M01 A3051 RMK AO2 SLP334 T00111011=
KMIE 211853Z 04009KT 10SM BKN014 OVC033 04/01 A3044 RMK AO2 RAE20 SLP307 P0000
 T00390011=
KSBN 211854Z 36011KT 10SM OVC013 M01/M03 A3053 RMK AO2 SLP346 T10061033=
KVPZ 211856Z AUTO 01009G16KT 10SM OVC014 01/M03 A3055 RMK AO2 SLP351 T00061028
 $=